createdAt,value
2019-05-25T03:49:48.966Z,33.60
2019-05-25T03:52:21.500Z,33.50
2019-05-25T03:54:53.730Z,33.60
2019-05-25T03:57:26.465Z,33.70
2019-05-25T03:59:59.069Z,33.90
2019-05-25T04:02:31.370Z,33.90
2019-05-25T04:05:03.909Z,34.00
2019-05-25T04:07:36.378Z,34.20
2019-05-25T04:10:09.119Z,34.00
2019-05-25T04:12:41.820Z,34.10
2019-05-25T04:15:14.367Z,34.20
2019-05-25T04:17:46.609Z,33.90
2019-05-25T04:20:19.219Z,34.20
2019-05-25T04:22:51.552Z,34.30
2019-05-25T04:25:24.172Z,34.50
2019-05-25T04:27:56.591Z,34.50
2019-05-25T04:30:29.161Z,34.40
2019-05-25T04:33:01.453Z,34.70
2019-05-25T04:35:34.359Z,34.80
2019-05-25T04:38:07.086Z,34.70
2019-05-25T04:40:39.685Z,34.70
2019-05-25T04:43:11.982Z,35.20
2019-05-25T04:45:44.382Z,35.20
2019-05-25T04:48:16.832Z,34.70
2019-05-25T04:50:49.134Z,34.70
2019-05-25T04:53:21.443Z,34.80
2019-05-25T04:55:53.678Z,35.00
2019-05-25T04:58:26.205Z,34.80
2019-05-25T05:00:59.127Z,35.00
2019-05-25T05:03:32.501Z,35.00
2019-05-25T05:06:05.405Z,35.20
2019-05-25T05:08:38.395Z,35.20
2019-05-25T05:11:10.893Z,35.40
2019-05-25T05:13:43.206Z,35.50
2019-05-25T05:16:15.808Z,35.80
2019-05-25T05:18:48.282Z,35.90
2019-05-25T05:21:20.914Z,35.60
2019-05-25T05:23:53.574Z,35.50
2019-05-25T05:26:25.891Z,35.30
2019-05-25T05:28:57.983Z,35.50
2019-05-25T05:31:30.456Z,35.90
2019-05-25T05:34:02.745Z,35.90
2019-05-25T05:36:36.497Z,35.80
2019-05-25T05:39:10.487Z,36.00
2019-05-25T05:41:43.137Z,36.00
2019-05-25T05:44:17.790Z,36.10
2019-05-25T05:46:51.487Z,36.40
2019-05-25T05:49:24.847Z,36.10
2019-05-25T05:51:59.053Z,36.00
2019-05-25T05:54:33.121Z,36.20
2019-05-25T05:57:12.290Z,36.10
2019-05-25T05:59:39.270Z,36.30
2019-05-25T06:02:11.607Z,36.40
2019-05-25T06:04:43.833Z,35.90
2019-05-25T06:07:16.252Z,36.10
2019-05-25T06:09:48.537Z,36.20
2019-05-25T06:12:21.264Z,36.50
2019-05-25T06:14:53.735Z,35.50
2019-05-25T06:17:26.250Z,35.40
2019-05-25T06:19:58.998Z,35.90
2019-05-25T06:22:31.419Z,36.30
2019-05-25T06:25:04.223Z,36.50
2019-05-25T06:27:37.103Z,36.40
2019-05-25T06:30:11.254Z,36.10
2019-05-25T06:32:43.609Z,35.40
2019-05-25T06:35:16.626Z,35.40
2019-05-25T06:37:48.984Z,35.90
2019-05-25T06:40:22.107Z,35.80
2019-05-25T06:42:54.315Z,36.00
2019-05-25T06:45:27.036Z,35.90
2019-05-25T06:47:59.461Z,36.30
2019-05-25T06:50:31.927Z,36.10
2019-05-25T06:53:04.459Z,36.10
2019-05-25T06:55:36.871Z,36.20
2019-05-25T06:58:09.288Z,36.10
2019-05-25T07:00:42.791Z,36.30
2019-05-25T07:03:15.175Z,36.20
2019-05-25T07:05:47.416Z,36.10
2019-05-25T07:08:20.099Z,36.40
2019-05-25T07:10:52.855Z,36.40
2019-05-25T07:13:28.586Z,36.30
2019-05-25T07:16:00.680Z,36.60
2019-05-25T07:18:35.405Z,36.70
2019-05-25T07:21:07.033Z,36.80
2019-05-25T07:23:39.387Z,36.90
2019-05-25T07:26:11.862Z,36.60
2019-05-25T07:28:44.437Z,36.90
2019-05-25T07:31:16.952Z,36.90
2019-05-25T07:33:49.383Z,36.90
2019-05-25T07:36:21.745Z,36.70
2019-05-25T07:38:54.316Z,36.90
2019-05-25T07:41:26.716Z,37.10
2019-05-25T07:43:59.241Z,37.30
2019-05-25T07:46:31.629Z,37.20
2019-05-25T07:49:03.919Z,37.00
2019-05-25T07:51:36.410Z,37.10
2019-05-25T07:54:09.959Z,36.90
2019-05-25T07:56:42.498Z,37.20
2019-05-25T07:59:15.296Z,37.00
2019-05-25T08:01:47.954Z,36.70
2019-05-25T08:04:20.214Z,36.70
2019-05-25T08:06:52.342Z,36.90
2019-05-25T08:09:25.003Z,36.50
2019-05-25T08:11:58.065Z,36.30
2019-05-25T08:14:30.884Z,36.40
2019-05-25T08:17:03.454Z,36.60
2019-05-25T08:19:35.854Z,36.60
2019-05-25T08:22:08.680Z,36.50
2019-05-25T08:24:41.033Z,36.40
2019-05-25T08:27:13.372Z,36.60
2019-05-25T08:29:45.732Z,36.70
2019-05-25T08:32:18.362Z,36.70
2019-05-25T08:34:50.666Z,36.80
2019-05-25T08:37:22.993Z,36.60
2019-05-25T08:39:55.238Z,36.90
2019-05-25T08:42:27.544Z,36.70
2019-05-25T08:45:00.117Z,36.60
2019-05-25T08:47:32.704Z,36.60
2019-05-25T08:50:06.259Z,36.80
2019-05-25T08:52:39.331Z,36.90
2019-05-25T08:55:12.219Z,36.60
2019-05-25T08:57:44.341Z,36.80
2019-05-25T09:00:16.975Z,36.60
2019-05-25T09:02:49.477Z,36.90
2019-05-25T09:05:21.858Z,36.90
2019-05-25T09:07:54.166Z,36.70
2019-05-25T09:10:26.593Z,36.50
2019-05-25T09:12:58.994Z,36.60
2019-05-25T09:15:31.545Z,36.80
2019-05-25T09:18:04.813Z,36.70
2019-05-25T09:20:37.219Z,36.60
2019-05-25T09:23:09.682Z,36.60
2019-05-25T09:25:42.956Z,36.50
2019-05-25T09:28:15.078Z,36.40
2019-05-25T09:30:47.277Z,36.30
2019-05-25T09:33:19.587Z,36.20
2019-05-25T09:35:52.470Z,36.10
2019-05-25T09:38:25.258Z,35.90
2019-05-25T09:40:57.746Z,35.70
2019-05-25T09:43:30.149Z,35.30
2019-05-25T09:46:03.387Z,35.40
2019-05-25T09:48:38.073Z,35.30
2019-05-25T09:51:15.371Z,35.10
2019-05-25T09:53:43.049Z,35.10
2019-05-25T09:56:15.667Z,35.10
2019-05-25T09:58:47.854Z,35.00
2019-05-25T10:01:20.158Z,35.10
2019-05-25T10:03:52.442Z,35.00
2019-05-25T10:06:24.568Z,34.90
2019-05-25T10:08:56.965Z,34.80
2019-05-25T10:11:29.617Z,34.70
2019-05-25T10:14:01.933Z,34.70
2019-05-25T10:16:34.664Z,34.60
2019-05-25T10:19:07.531Z,34.60
2019-05-25T10:21:40.816Z,34.60
2019-05-25T10:24:14.121Z,34.50
2019-05-25T10:26:46.527Z,34.40
2019-05-25T10:29:34.012Z,34.30
2019-05-25T10:31:52.930Z,34.30
2019-05-25T10:34:25.242Z,34.20
2019-05-25T10:36:57.773Z,34.00
2019-05-25T10:39:30.647Z,34.00
2019-05-25T10:42:02.841Z,34.00
2019-05-25T10:44:35.417Z,34.00
2019-05-25T10:47:10.335Z,34.00
2019-05-25T10:49:42.644Z,33.90
2019-05-25T10:52:15.200Z,33.90
2019-05-25T10:54:47.306Z,33.80
2019-05-25T10:57:19.748Z,33.80
2019-05-25T10:59:53.206Z,33.80
2019-05-25T11:02:25.796Z,33.80
2019-05-25T11:04:58.316Z,33.70
2019-05-25T11:07:30.952Z,33.50
2019-05-25T11:10:03.428Z,33.40
2019-05-25T11:12:36.030Z,33.00
2019-05-25T11:15:10.178Z,32.80
2019-05-25T11:17:42.436Z,33.00
2019-05-25T11:20:15.799Z,32.70
2019-05-25T11:22:48.518Z,32.50
2019-05-25T11:25:21.022Z,32.50
2019-05-25T11:27:53.413Z,32.50
2019-05-25T11:30:25.839Z,32.40
2019-05-25T11:32:58.161Z,32.40
2019-05-25T11:35:30.547Z,32.40
2019-05-25T11:38:03.069Z,32.40
2019-05-25T11:40:35.370Z,32.40
2019-05-25T11:43:07.893Z,32.40
2019-05-25T11:45:40.177Z,32.60
2019-05-25T11:48:12.681Z,32.60
2019-05-25T11:50:44.867Z,32.40
2019-05-25T11:53:18.545Z,32.20
2019-05-25T11:55:50.638Z,32.10
2019-05-25T11:58:23.260Z,32.20
2019-05-25T12:00:55.680Z,32.40
2019-05-25T12:03:28.130Z,32.40
2019-05-25T12:06:00.316Z,32.40
2019-05-25T12:08:32.765Z,32.30
2019-05-25T12:11:05.218Z,32.00
2019-05-25T12:13:37.509Z,31.90
2019-05-25T12:16:10.304Z,32.00
2019-05-25T12:18:42.601Z,31.90
2019-05-25T12:21:15.343Z,32.00
2019-05-25T12:23:47.778Z,31.90
2019-05-25T12:26:20.337Z,32.10
2019-05-25T12:28:52.670Z,32.00
2019-05-25T12:31:25.062Z,32.00
2019-05-25T12:33:58.711Z,32.00
2019-05-25T12:36:31.432Z,31.90
2019-05-25T12:39:03.905Z,31.80
2019-05-25T12:41:36.583Z,31.60
2019-05-25T12:44:08.709Z,31.50
2019-05-25T12:46:41.240Z,31.40
2019-05-25T12:49:13.902Z,31.40
2019-05-25T12:51:46.121Z,31.30
2019-05-25T12:54:18.510Z,31.10
2019-05-25T12:56:51.157Z,30.90
2019-05-25T12:59:24.391Z,30.90
2019-05-25T13:01:56.695Z,30.90
2019-05-25T13:04:29.132Z,31.00
2019-05-25T13:07:01.666Z,30.90
2019-05-25T13:09:33.980Z,30.90
2019-05-25T13:12:06.917Z,30.90
2019-05-25T13:14:39.280Z,30.90
2019-05-25T13:17:12.066Z,30.90
2019-05-25T13:19:44.522Z,30.80
2019-05-25T13:22:18.487Z,30.80
2019-05-25T13:24:50.779Z,30.70
2019-05-25T13:27:24.484Z,30.70
2019-05-25T13:29:57.085Z,30.60
2019-05-25T13:32:29.739Z,30.60
2019-05-25T13:35:02.186Z,30.60
2019-05-25T13:37:35.132Z,30.60
2019-05-25T13:40:08.788Z,30.50
2019-05-25T13:42:48.338Z,30.40
2019-05-25T13:45:21.041Z,30.40
2019-05-25T13:47:53.331Z,30.40
2019-05-25T13:50:25.759Z,30.40
2019-05-25T13:52:58.986Z,30.40
2019-05-25T13:55:31.311Z,30.30
2019-05-25T13:58:03.602Z,30.20
2019-05-25T14:00:36.162Z,30.10
2019-05-25T14:03:08.613Z,30.10
2019-05-25T14:05:41.360Z,30.10
2019-05-25T14:08:14.303Z,30.00
2019-05-25T14:10:46.507Z,30.10
2019-05-25T14:13:18.800Z,30.00
2019-05-25T14:16:04.271Z,30.00
2019-05-25T14:18:24.680Z,30.00
2019-05-25T14:20:57.922Z,29.90
2019-05-25T14:23:30.532Z,29.80
2019-05-25T14:26:02.786Z,30.00
2019-05-25T14:28:35.329Z,29.80
2019-05-25T14:31:07.843Z,29.90
2019-05-25T14:33:40.677Z,29.80
2019-05-25T14:36:12.971Z,29.80
2019-05-25T14:38:45.390Z,29.70
2019-05-25T14:41:17.910Z,29.70
2019-05-25T14:43:50.531Z,29.70
2019-05-25T14:46:28.017Z,29.70
2019-05-25T14:48:56.369Z,29.70
2019-05-25T14:51:28.695Z,29.60
2019-05-25T14:54:01.276Z,29.70
2019-05-25T14:56:33.749Z,29.70
2019-05-25T14:59:06.462Z,29.70
2019-05-25T15:01:38.791Z,29.70
2019-05-25T15:04:12.408Z,29.60
2019-05-25T15:06:44.780Z,29.60
2019-05-25T15:09:17.418Z,29.50
2019-05-25T15:11:53.558Z,29.50
2019-05-25T15:14:23.641Z,29.60
2019-05-25T15:16:56.193Z,29.50
2019-05-25T15:19:28.521Z,29.60
2019-05-25T15:22:01.290Z,29.70
2019-05-25T15:24:35.072Z,29.80
2019-05-25T15:27:08.052Z,29.90
2019-05-25T15:29:40.294Z,29.90
2019-05-25T15:32:19.988Z,29.90
2019-05-25T15:34:46.647Z,30.00
2019-05-25T15:37:19.386Z,30.00
2019-05-25T15:39:51.655Z,30.00
2019-05-25T15:42:24.699Z,30.00
2019-05-25T15:44:57.073Z,30.00
2019-05-25T15:47:29.586Z,30.00
2019-05-25T15:50:02.013Z,29.90
2019-05-25T15:52:34.463Z,29.90
2019-05-25T15:55:09.220Z,29.90
2019-05-25T15:57:41.805Z,29.80
2019-05-25T16:00:15.833Z,29.80
2019-05-25T16:02:48.245Z,29.80
2019-05-25T16:05:20.641Z,29.70
2019-05-25T16:07:55.247Z,29.70
2019-05-25T16:10:27.818Z,29.60
2019-05-25T16:13:00.042Z,29.60
2019-05-25T16:15:32.751Z,29.60
2019-05-25T16:18:05.182Z,29.60
2019-05-25T16:20:37.674Z,29.60
2019-05-25T16:23:10.316Z,29.70
2019-05-25T16:25:43.256Z,29.70
2019-05-25T16:28:16.417Z,29.60
2019-05-25T16:30:48.617Z,29.60
2019-05-25T16:33:22.021Z,29.60
2019-05-25T16:35:57.945Z,29.60
2019-05-25T16:38:28.773Z,29.60
2019-05-25T16:41:01.657Z,29.60
2019-05-25T16:43:34.271Z,29.60
2019-05-25T16:46:06.811Z,29.60
2019-05-25T16:48:40.056Z,29.60
2019-05-25T16:51:12.758Z,29.60
2019-05-25T16:53:45.421Z,29.60
2019-05-25T16:56:18.116Z,29.60
2019-05-25T16:58:50.655Z,29.50
2019-05-25T17:01:23.215Z,29.50
2019-05-25T17:03:55.716Z,29.50
2019-05-25T17:06:28.389Z,29.40
2019-05-25T17:09:00.922Z,29.40
2019-05-25T17:11:34.413Z,29.40
2019-05-25T17:14:06.966Z,29.40
2019-05-25T17:16:40.207Z,29.40
2019-05-25T17:19:12.739Z,29.40
2019-05-25T17:21:44.878Z,29.40
2019-05-25T17:24:17.197Z,29.40
2019-05-25T17:26:49.455Z,29.40
2019-05-25T17:29:21.787Z,29.30
2019-05-25T17:31:54.381Z,29.30
2019-05-25T17:34:27.013Z,29.20
2019-05-25T17:36:59.229Z,29.10
2019-05-25T17:39:32.278Z,29.10
2019-05-25T17:42:04.702Z,29.10
2019-05-25T17:44:37.498Z,29.00
2019-05-25T17:47:10.017Z,29.00
2019-05-25T17:49:42.653Z,29.00
2019-05-25T17:52:15.081Z,29.00
2019-05-25T17:54:47.297Z,28.90
2019-05-25T17:57:19.598Z,28.90
2019-05-25T17:59:52.025Z,28.90
2019-05-25T18:02:24.389Z,28.90
2019-05-25T18:04:57.944Z,28.90
2019-05-25T18:07:30.418Z,28.90
2019-05-25T18:10:02.929Z,28.80
2019-05-25T18:12:35.489Z,28.80
2019-05-25T18:15:10.047Z,28.80
2019-05-25T18:17:42.416Z,28.80
2019-05-25T18:20:15.864Z,28.80
2019-05-25T18:22:48.148Z,28.80
2019-05-25T18:25:20.946Z,28.80
2019-05-25T18:27:53.129Z,28.80
2019-05-25T18:30:27.458Z,28.70
2019-05-25T18:33:00.141Z,28.80
2019-05-25T18:35:32.556Z,28.80
2019-05-25T18:38:05.086Z,28.70
2019-05-25T18:40:37.317Z,28.80
2019-05-25T18:43:09.526Z,28.70
2019-05-25T18:45:41.679Z,28.70
2019-05-25T18:48:13.881Z,28.70
2019-05-25T18:50:46.629Z,28.80
2019-05-25T18:53:18.907Z,28.70
2019-05-25T18:55:51.646Z,28.70
2019-05-25T18:58:24.044Z,28.70
2019-05-25T19:00:56.486Z,28.70
2019-05-25T19:03:28.898Z,28.60
2019-05-25T19:06:01.481Z,28.50
2019-05-25T19:08:33.873Z,28.50
2019-05-25T19:11:06.500Z,28.50
2019-05-25T19:13:38.688Z,28.40
2019-05-25T19:16:11.127Z,28.40
2019-05-25T19:18:43.336Z,28.30
2019-05-25T19:21:16.039Z,28.30
2019-05-25T19:23:48.116Z,28.30
2019-05-25T19:26:20.517Z,28.30
2019-05-25T19:28:52.898Z,28.30
2019-05-25T19:31:25.396Z,28.20
2019-05-25T19:33:57.626Z,28.20
2019-05-25T19:36:30.160Z,28.20
2019-05-25T19:39:02.358Z,28.20
2019-05-25T19:41:35.108Z,28.20
2019-05-25T19:44:07.609Z,28.10
2019-05-25T19:46:40.250Z,28.10
2019-05-25T19:49:12.441Z,28.10
2019-05-25T19:51:44.601Z,28.10
2019-05-25T19:54:16.689Z,28.00
2019-05-25T19:56:49.345Z,28.10
2019-05-25T19:59:21.647Z,28.00
2019-05-25T20:01:54.089Z,27.90
2019-05-25T20:04:26.313Z,27.90
2019-05-25T20:06:58.955Z,27.90
2019-05-25T20:09:31.576Z,27.90
2019-05-25T20:12:04.287Z,27.90
2019-05-25T20:14:37.230Z,27.90
2019-05-25T20:17:09.551Z,27.90
2019-05-25T20:19:41.649Z,27.90
2019-05-25T20:22:14.990Z,27.90
2019-05-25T20:24:47.179Z,27.80
2019-05-25T20:27:19.597Z,27.80
2019-05-25T20:29:51.925Z,27.90
2019-05-25T20:32:24.408Z,27.80
2019-05-25T20:34:56.713Z,27.90
2019-05-25T20:37:29.844Z,27.80
2019-05-25T20:40:03.394Z,27.90
2019-05-25T20:42:35.811Z,27.80
2019-05-25T20:45:09.770Z,27.80
2019-05-25T20:47:42.008Z,27.70
2019-05-25T20:50:14.971Z,27.70
2019-05-25T20:52:47.282Z,27.70
2019-05-25T20:55:19.696Z,27.70
2019-05-25T20:57:52.225Z,27.70
2019-05-25T21:00:25.529Z,27.70
2019-05-25T21:03:06.229Z,27.70
2019-05-25T21:05:46.978Z,27.70
2019-05-25T21:08:06.046Z,27.70
2019-05-25T21:10:38.560Z,27.60
2019-05-25T21:13:10.904Z,27.60
2019-05-25T21:15:43.355Z,27.60
2019-05-25T21:18:16.867Z,27.60
2019-05-25T21:20:49.300Z,27.70
2019-05-25T21:23:21.944Z,27.70
2019-05-25T21:25:54.358Z,27.70
2019-05-25T21:28:26.711Z,27.70
2019-05-25T21:30:58.931Z,27.60
2019-05-25T21:33:31.242Z,27.60
2019-05-25T21:36:08.719Z,27.60
2019-05-25T21:38:37.110Z,27.50
2019-05-25T21:41:09.426Z,27.50
2019-05-25T21:43:41.671Z,27.40
2019-05-25T21:46:13.890Z,27.40
2019-05-25T21:48:46.325Z,27.40
2019-05-25T21:51:18.626Z,27.30
2019-05-25T21:53:50.817Z,27.40
2019-05-25T21:56:23.415Z,27.30
2019-05-25T21:58:56.454Z,27.30
2019-05-25T22:01:29.186Z,27.30
2019-05-25T22:04:02.087Z,27.30
2019-05-25T22:06:34.976Z,27.30
2019-05-25T22:09:09.276Z,27.30
2019-05-25T22:11:41.496Z,27.30
2019-05-25T22:14:13.951Z,27.40
2019-05-25T22:16:46.455Z,27.30
2019-05-25T22:19:19.176Z,27.30
2019-05-25T22:21:51.516Z,27.20
2019-05-25T22:24:23.823Z,27.20
2019-05-25T22:26:56.227Z,27.20
2019-05-25T22:29:28.828Z,27.20
2019-05-25T22:32:01.091Z,27.10
2019-05-25T22:34:33.617Z,27.10
2019-05-25T22:37:06.151Z,27.10
2019-05-25T22:39:38.284Z,27.10
2019-05-25T22:42:10.685Z,27.10
2019-05-25T22:44:43.459Z,27.10
2019-05-25T22:47:16.169Z,27.00
2019-05-25T22:49:48.609Z,27.00
2019-05-25T22:52:21.247Z,27.00
2019-05-25T22:54:53.431Z,27.00
2019-05-25T22:57:26.322Z,27.10
2019-05-25T22:59:58.752Z,27.10
2019-05-25T23:02:31.041Z,27.10
2019-05-25T23:05:06.983Z,27.10
2019-05-25T23:07:37.580Z,27.10
2019-05-25T23:10:11.708Z,27.10
2019-05-25T23:12:45.119Z,27.10
2019-05-25T23:15:17.981Z,27.20
2019-05-25T23:17:50.074Z,27.20
2019-05-25T23:20:22.688Z,27.20
2019-05-25T23:22:55.890Z,27.30
2019-05-25T23:25:28.207Z,27.30
2019-05-25T23:28:00.411Z,27.30
2019-05-25T23:30:33.831Z,27.40
2019-05-25T23:33:06.024Z,27.40
2019-05-25T23:35:38.573Z,27.50
2019-05-25T23:38:11.284Z,27.50
2019-05-25T23:40:43.811Z,27.60
2019-05-25T23:43:16.058Z,27.60
2019-05-25T23:45:48.477Z,27.70
2019-05-25T23:48:20.803Z,27.80
2019-05-25T23:50:53.223Z,27.80
2019-05-25T23:53:25.803Z,27.80
2019-05-25T23:55:58.380Z,27.90
2019-05-25T23:58:30.767Z,28.00
